Time;durP1;ratioP1;P1;durP2;ratioP2;P2;SDS_P1;SDS_P2;PMS_P1;PMS_P2;Temp;Humidity;BMP_temperature;BMP_pressure;BME280_temperature;BME280_humidity;BME280_pressure;Samples;Min_cycle;Max_cycle;Signal;HPM_P1;HPM_P2
2021/08/06 00:03:45;;;;;;;;;;;;;;;19.07;79.97;99184.84;10376113;28;22726;-56
2021/08/06 00:08:47;;;;;;;;;;;;;;;18.98;80.54;99186.06;10368324;28;19964;-56
2021/08/06 00:13:48;;;;;;;;;;;;;;;18.87;81.11;99173.16;10366431;28;19960;-55
2021/08/06 00:18:50;;;;;;;;;;;;;;;18.73;82.03;99177.69;10368571;28;19925;-55
2021/08/06 00:23:51;;;;;;;;;;;;;;;18.93;81.78;99171.53;10366007;28;19966;-56
2021/08/06 00:28:53;;;;;;;;;;;;;;;18.91;80.88;99174.44;10364011;28;19929;-55
2021/08/06 00:33:54;;;;;;;;;;;;;;;18.95;81.28;99158.69;10361583;28;19952;-55
2021/08/06 00:38:55;;;;;;;;;;;;;;;18.89;81.46;99163.03;10361158;28;20006;-55
2021/08/06 00:43:57;;;;;;;;;;;;;;;18.92;81.37;99168.03;10364602;28;20006;-56
2021/08/06 00:48:58;;;;;;;;;;;;;;;18.86;81.23;99166.16;10361275;28;19960;-55
2021/08/06 00:54:00;;;;;;;;;;;;;;;18.91;81.29;99158.25;10362329;28;19957;-55
2021/08/06 00:59:01;;;;;;;;;;;;;;;18.88;81.35;99158.66;10372601;28;19929;-55
2021/08/06 01:04:07;;;;;;;;;;;;;;;18.89;81.53;99160.34;10374576;28;19937;-55
2021/08/06 01:09:17;;;;;;;;;;;;;;;18.86;81.06;99160.75;10377730;28;19926;-56
2021/08/06 01:14:21;;;;;;;;;;;;;;;18.76;81.11;99157.56;10369911;28;19925;-55
2021/08/06 01:19:32;;;;;;;;;;;;;;;18.67;82.44;99163.13;10374143;28;20398;-55
2021/08/06 01:24:35;;;;;;;;;;;;;;;18.71;82.14;99156.31;10380373;28;19986;-55
2021/08/06 01:29:36;;;;;;;;;;;;;;;18.76;81.98;99154.88;10371283;28;19984;-59
2021/08/06 01:34:37;;;;;;;;;;;;;;;18.76;81.59;99154.88;10372685;28;20333;-55
2021/08/06 01:39:39;;;;;;;;;;;;;;;18.76;81.60;99160.28;10376471;28;20026;-55
2021/08/06 01:44:47;;;;;;;;;;;;;;;18.76;81.39;99157.56;10379419;28;20605;-55
2021/08/06 01:49:54;;;;;;;;;;;;;;;18.71;81.92;99164.41;10373816;28;19925;-55
2021/08/06 01:54:59;;;;;;;;;;;;;;;18.67;82.32;99157.75;10359280;28;19964;-55
2021/08/06 02:00:01;;;;;;;;;;;;;;;18.64;82.13;99147.38;10365569;28;20023;-55
2021/08/06 02:05:02;;;;;;;;;;;;;;;18.67;82.42;99157.75;10377019;28;19925;-55
2021/08/06 02:10:04;;;;;;;;;;;;;;;18.70;82.67;99151.94;10368167;28;19972;-55
2021/08/06 02:15:07;;;;;;;;;;;;;;;18.70;82.25;99146.56;10365556;28;19985;-58
2021/08/06 02:20:09;;;;;;;;;;;;;;;18.65;82.06;99140.16;10370053;28;19925;-55
2021/08/06 02:25:12;;;;;;;;;;;;;;;18.61;82.61;99136.19;10373494;28;19933;-56
2021/08/06 02:30:15;;;;;;;;;;;;;;;18.59;82.57;99122.91;10371452;28;19925;-55
2021/08/06 02:35:17;;;;;;;;;;;;;;;18.55;82.89;99129.72;10370792;28;19968;-55
2021/08/06 02:40:18;;;;;;;;;;;;;;;18.54;83.02;99120.84;10369145;28;19925;-56
2021/08/06 02:45:19;;;;;;;;;;;;;;;18.56;83.07;99120.63;10370761;28;19957;-55
2021/08/06 02:50:21;;;;;;;;;;;;;;;18.56;83.11;99120.63;10369234;28;19933;-55
2021/08/06 02:55:22;;;;;;;;;;;;;;;18.56;83.39;99109.84;10371842;28;20533;-55
2021/08/06 03:00:23;;;;;;;;;;;;;;;18.52;83.44;99111.28;10374946;28;20355;-55
2021/08/06 03:05:27;;;;;;;;;;;;;;;18.49;83.75;99117.06;10359024;28;19929;-56
2021/08/06 03:10:28;;;;;;;;;;;;;;;18.48;84.36;99115.41;10373492;28;20560;-57
2021/08/06 03:15:30;;;;;;;;;;;;;;;18.49;84.40;99103.59;10368475;28;19972;-56
2021/08/06 03:20:31;;;;;;;;;;;;;;;18.49;84.14;99103.59;10366680;28;20662;-56
2021/08/06 03:25:32;;;;;;;;;;;;;;;18.50;83.58;99118.75;10362754;28;20377;-55
2021/08/06 03:30:34;;;;;;;;;;;;;;;18.50;83.02;99113.34;10373112;28;20569;-57
2021/08/06 03:35:35;;;;;;;;;;;;;;;18.50;83.08;99102.59;10354920;28;19948;-56
2021/08/06 03:40:36;;;;;;;;;;;;;;;18.52;83.01;99122.06;10368033;28;19980;-55
2021/08/06 03:45:38;;;;;;;;;;;;;;;18.53;82.90;99108.38;10354816;28;19983;-55
2021/08/06 03:50:40;;;;;;;;;;;;;;;18.52;82.70;99111.28;10360125;28;19934;-56
2021/08/06 03:55:43;;;;;;;;;;;;;;;18.47;82.70;99119.16;10366304;28;19975;-56
2021/08/06 04:00:45;;;;;;;;;;;;;;;18.43;82.92;99112.50;10361422;28;19929;-55
2021/08/06 04:05:46;;;;;;;;;;;;;;;18.41;84.04;99103.81;10368932;28;20550;-55
2021/08/06 04:10:48;;;;;;;;;;;;;;;18.42;84.76;99105.44;10365221;28;20394;-55
2021/08/06 04:15:49;;;;;;;;;;;;;;;18.38;84.38;99115.81;10365350;28;20081;-55
2021/08/06 04:20:51;;;;;;;;;;;;;;;18.41;84.13;99119.97;10367318;28;19975;-56
2021/08/06 04:25:52;;;;;;;;;;;;;;;18.35;85.67;99121.59;10354347;28;19975;-55
2021/08/06 04:30:53;;;;;;;;;;;;;;;18.39;85.14;99120.16;10358260;28;19964;-55
2021/08/06 04:35:55;;;;;;;;;;;;;;;18.22;87.44;99090.03;10361245;28;20385;-55
2021/08/06 04:40:56;;;;;;;;;;;;;;;18.07;87.69;99103.66;10376246;28;19925;-55
2021/08/06 04:45:58;;;;;;;;;;;;;;;18.18;88.22;99100.41;10369503;28;19976;-55
2021/08/06 04:50:59;;;;;;;;;;;;;;;18.23;86.93;99102.50;10365551;28;20378;-55
2021/08/06 04:56:01;;;;;;;;;;;;;;;18.09;88.07;99103.44;10375016;28;20398;-56
2021/08/06 05:01:02;;;;;;;;;;;;;;;18.23;87.59;99102.50;10354455;28;20375;-56
2021/08/06 05:06:04;;;;;;;;;;;;;;;17.96;89.27;99101.53;10354681;28;20044;-55
2021/08/06 05:11:05;;;;;;;;;;;;;;;17.78;89.28;99083.19;10350816;28;19978;-55
2021/08/06 05:16:06;;;;;;;;;;;;;;;17.86;90.54;99096.47;10334982;28;19968;-55
2021/08/06 05:21:08;;;;;;;;;;;;;;;17.80;91.18;99094.59;10350920;28;20071;-54
2021/08/06 05:26:09;;;;;;;;;;;;;;;17.92;90.85;99087.63;10355800;28;19929;-55
2021/08/06 05:31:10;;;;;;;;;;;;;;;18.01;90.40;99094.53;10350328;28;19980;-57
2021/08/06 05:36:12;;;;;;;;;;;;;;;17.98;90.20;99097.59;10347401;28;19968;-54
2021/08/06 05:41:15;;;;;;;;;;;;;;;17.98;90.01;99089.53;10355643;28;19955;-55
2021/08/06 05:46:16;;;;;;;;;;;;;;;18.05;89.56;99089.56;10353133;28;20015;-55
2021/08/06 05:51:18;;;;;;;;;;;;;;;18.17;89.46;99097.91;10356085;28;20034;-54
2021/08/06 05:56:19;;;;;;;;;;;;;;;18.07;89.24;99086.69;10356398;28;19972;-55
2021/08/06 06:01:20;;;;;;;;;;;;;;;18.07;88.87;99089.38;10353183;28;20310;-58
2021/08/06 06:06:22;;;;;;;;;;;;;;;17.78;90.16;99093.97;10346960;28;20059;-55
2021/08/06 06:11:24;;;;;;;;;;;;;;;17.92;91.91;99090.31;10348418;28;19941;-55
2021/08/06 06:16:25;;;;;;;;;;;;;;;18.02;90.44;99104.25;10347268;28;19937;-54
2021/08/06 06:21:26;;;;;;;;;;;;;;;18.15;89.63;99097.25;10352515;28;19972;-55
2021/08/06 06:26:28;;;;;;;;;;;;;;;18.22;89.52;99098.13;10355571;28;19964;-55
2021/08/06 06:31:29;;;;;;;;;;;;;;;18.29;89.15;99095.47;10353506;28;19965;-56
2021/08/06 06:36:30;;;;;;;;;;;;;;;18.31;88.84;99088.81;10350923;28;20072;-56
2021/08/06 06:41:32;;;;;;;;;;;;;;;18.38;88.04;99099.63;10353005;28;19948;-57
2021/08/06 06:46:33;;;;;;;;;;;;;;;18.54;86.89;99099.28;10352929;28;19985;-54
2021/08/06 06:51:34;;;;;;;;;;;;;;;18.45;87.34;99100.50;10354425;28;20005;-55
2021/08/06 06:56:36;;;;;;;;;;;;;;;18.49;88.03;99106.28;10352699;28;19991;-54
2021/08/06 07:01:37;;;;;;;;;;;;;;;18.35;88.49;99106.25;10354690;28;21252;-55
2021/08/06 07:06:39;;;;;;;;;;;;;;;18.30;88.67;99105.19;10345341;28;20380;-55
2021/08/06 07:11:40;;;;;;;;;;;;;;;18.19;88.75;99106.59;10347129;28;21375;-54
2021/08/06 07:16:42;;;;;;;;;;;;;;;18.30;89.64;99114.13;10345734;28;19965;-56
2021/08/06 07:21:47;;;;;;;;;;;;;;;18.34;88.50;99119.94;10347218;28;19987;-56
2021/08/06 07:26:49;;;;;;;;;;;;;;;18.48;88.44;99126.19;10342381;28;20503;-55
2021/08/06 07:31:50;;;;;;;;;;;;;;;18.61;87.06;99138.88;10351081;28;19984;-55
2021/08/06 07:36:52;;;;;;;;;;;;;;;18.66;87.04;99139.94;10349316;28;20012;-56
2021/08/06 07:41:53;;;;;;;;;;;;;;;18.73;86.80;99135.41;10348391;28;19980;-56
2021/08/06 07:46:55;;;;;;;;;;;;;;;18.65;86.41;99138.28;10347112;28;20018;-55
2021/08/06 07:51:56;;;;;;;;;;;;;;;18.87;87.02;99135.44;10349962;28;20414;-56
2021/08/06 07:56:57;;;;;;;;;;;;;;;18.78;86.48;99133.94;10346121;28;20024;-56
2021/08/06 08:01:59;;;;;;;;;;;;;;;18.93;86.27;99134.63;10341848;28;20556;-57
2021/08/06 08:07:00;;;;;;;;;;;;;;;19.05;84.94;99135.69;10349207;28;19938;-54
2021/08/06 08:12:02;;;;;;;;;;;;;;;18.82;86.02;99144.09;10342982;28;19984;-56
2021/08/06 08:17:03;;;;;;;;;;;;;;;18.81;86.33;99141.63;10346785;28;20044;-57
2021/08/06 08:22:05;;;;;;;;;;;;;;;18.80;87.01;99148.06;10349594;28;19929;-56
2021/08/06 08:27:06;;;;;;;;;;;;;;;18.84;88.27;99146.59;10334327;28;20036;-56
2021/08/06 08:32:08;;;;;;;;;;;;;;;19.02;87.55;99141.50;10354463;28;20324;-56
2021/08/06 08:37:09;;;;;;;;;;;;;;;19.34;86.18;99152.50;10343195;28;19976;-54
2021/08/06 08:42:11;;;;;;;;;;;;;;;19.51;82.20;99135.88;10351823;28;19941;-56
2021/08/06 08:47:13;;;;;;;;;;;;;;;19.81;82.93;99146.25;10341663;28;20514;-56
2021/08/06 08:52:15;;;;;;;;;;;;;;;20.17;80.67;99144.91;10343343;28;20571;-55
2021/08/06 08:57:19;;;;;;;;;;;;;;;20.06;80.77;99144.53;10343167;28;20040;-55
2021/08/06 09:02:24;;;;;;;;;;;;;;;19.86;81.05;99143.75;10343419;28;19999;-56
2021/08/06 09:07:30;;;;;;;;;;;;;;;20.35;79.10;99136.94;10339719;28;19929;-55
2021/08/06 09:12:44;;;;;;;;;;;;;;;20.45;78.54;99131.91;10340400;28;21081;-56
2021/08/06 09:17:48;;;;;;;;;;;;;;;20.36;77.88;99130.50;10321431;28;20025;-55
2021/08/06 09:22:50;;;;;;;;;;;;;;;20.84;76.54;99129.25;10342754;28;19933;-56
2021/08/06 09:28:02;;;;;;;;;;;;;;;21.15;73.73;99141.94;10346872;28;20551;-55
2021/08/06 09:33:04;;;;;;;;;;;;;;;21.77;71.59;99130.38;10355877;28;19972;-55
2021/08/06 09:38:16;;;;;;;;;;;;;;;21.73;70.33;99136.47;10348128;28;19930;-55
2021/08/06 09:43:18;;;;;;;;;;;;;;;22.04;67.32;99132.78;10357198;28;20022;-55
2021/08/06 09:48:26;;;;;;;;;;;;;;;21.96;64.66;99138.50;10351358;28;19925;-55
2021/08/06 09:53:29;;;;;;;;;;;;;;;22.06;63.85;99149.66;10352417;28;20013;-55
2021/08/06 09:58:30;;;;;;;;;;;;;;;22.04;63.53;99149.06;10352089;28;19964;-55
2021/08/06 10:03:35;;;;;;;;;;;;;;;22.32;63.29;99148.53;10354067;28;19933;-56
2021/08/06 10:08:38;;;;;;;;;;;;;;;22.80;62.02;99159.59;10354243;28;20448;-55
2021/08/06 10:13:40;;;;;;;;;;;;;;;23.16;59.92;99147.00;10353913;28;20663;-56
2021/08/06 10:18:42;;;;;;;;;;;;;;;23.60;57.80;99161.94;10356528;28;20261;-55
2021/08/06 10:23:43;;;;;;;;;;;;;;;24.07;57.85;99146.69;10353919;28;20529;-56
2021/08/06 10:28:44;;;;;;;;;;;;;;;24.51;55.00;99139.69;10355358;28;20721;-56
2021/08/06 10:34:02;;;;;;;;;;;;;;;23.80;55.06;99141.72;10352564;28;20579;-56
2021/08/06 10:39:03;;;;;;;;;;;;;;;23.76;54.79;99132.38;10346925;28;19972;-56
2021/08/06 10:44:05;;;;;;;;;;;;;;;23.64;53.75;99141.38;10348168;28;20022;-56
2021/08/06 10:49:10;;;;;;;;;;;;;;;23.81;54.20;99132.53;10344529;28;19925;-60
2021/08/06 10:54:11;;;;;;;;;;;;;;;23.61;53.45;99136.41;10347719;28;19976;-55
2021/08/06 10:59:14;;;;;;;;;;;;;;;23.86;52.87;99134.56;10341885;28;19936;-54
2021/08/06 11:04:18;;;;;;;;;;;;;;;23.22;54.97;99144.16;10346068;28;19969;-55
2021/08/06 11:09:26;;;;;;;;;;;;;;;22.54;57.42;99129.91;10343938;28;19991;-55
2021/08/06 11:14:27;;;;;;;;;;;;;;;22.87;57.79;99141.34;10349819;28;20375;-55
2021/08/06 11:19:30;;;;;;;;;;;;;;;23.16;55.99;99128.00;10353449;28;19935;-55
2021/08/06 11:24:35;;;;;;;;;;;;;;;23.77;53.92;99125.91;10352144;28;20045;-56
2021/08/06 11:29:37;;;;;;;;;;;;;;;24.45;50.93;99126.25;10352852;28;19984;-55
2021/08/06 11:34:52;;;;;;;;;;;;;;;25.20;47.35;99118.91;10335381;28;20413;-56
2021/08/06 11:40:00;;;;;;;;;;;;;;;24.80;48.41;99128.00;10346067;28;19933;-56
2021/08/06 11:45:02;;;;;;;;;;;;;;;25.17;47.20;99120.22;10352261;28;19929;-56
2021/08/06 11:50:04;;;;;;;;;;;;;;;25.01;45.61;99121.03;10357249;28;20169;-60
2021/08/06 11:55:06;;;;;;;;;;;;;;;24.98;44.87;99122.38;10349777;28;19956;-55
2021/08/06 12:00:15;;;;;;;;;;;;;;;24.81;46.50;99116.88;10340894;28;20070;-56
2021/08/06 12:05:21;;;;;;;;;;;;;;;25.00;46.82;99122.94;10343779;28;19991;-55
2021/08/06 12:10:26;;;;;;;;;;;;;;;24.66;47.68;99119.34;10342884;28;19961;-55
2021/08/06 12:15:29;;;;;;;;;;;;;;;24.77;46.59;99125.78;10349782;28;20026;-55
2021/08/06 12:20:38;;;;;;;;;;;;;;;24.12;47.67;99122.31;10348978;28;19984;-55
2021/08/06 12:25:59;;;;;;;;;;;;;;;24.16;47.66;99112.63;10348218;28;19991;-55
2021/08/06 12:31:08;;;;;;;;;;;;;;;24.26;46.04;99114.72;10332132;28;19929;-55
2021/08/06 12:36:14;;;;;;;;;;;;;;;24.15;47.06;99119.13;10336285;28;20351;-56
2021/08/06 12:41:30;;;;;;;;;;;;;;;23.99;48.24;99131.59;10349392;28;20015;-55
2021/08/06 12:46:31;;;;;;;;;;;;;;;24.31;47.97;99126.53;10350288;28;20064;-56
2021/08/06 12:51:33;;;;;;;;;;;;;;;24.79;46.76;99129.91;10332347;28;19957;-56
2021/08/06 12:57:06;;;;;;;;;;;;;;;24.83;45.37;99135.69;10348955;28;19991;-55
2021/08/06 13:02:14;;;;;;;;;;;;;;;25.05;45.30;99131.19;10350509;28;19948;-56
2021/08/06 13:07:23;;;;;;;;;;;;;;;24.86;44.82;99129.75;10356104;28;19937;-56
2021/08/06 13:12:24;;;;;;;;;;;;;;;24.85;45.18;99134.38;10352961;28;19964;-55
2021/08/06 13:17:28;;;;;;;;;;;;;;;24.63;43.50;99142.41;10357270;28;20317;-55
2021/08/06 13:22:29;;;;;;;;;;;;;;;24.31;45.73;99140.13;10356518;28;19932;-55
2021/08/06 13:27:30;;;;;;;;;;;;;;;23.70;48.05;99160.50;10349873;28;21601;-55
2021/08/06 13:32:32;;;;;;;;;;;;;;;23.75;48.05;99142.44;10352444;28;19933;-55
2021/08/06 13:37:33;;;;;;;;;;;;;;;23.72;48.15;99164.66;10357132;28;20020;-55
2021/08/06 13:42:35;;;;;;;;;;;;;;;23.53;48.51;99168.53;10357667;28;19972;-56
2021/08/06 13:47:37;;;;;;;;;;;;;;;23.50;48.79;99161.69;10353077;28;19929;-56
2021/08/06 13:52:39;;;;;;;;;;;;;;;23.97;46.41;99166.31;10359720;28;19953;-57
2021/08/06 13:57:40;;;;;;;;;;;;;;;24.03;45.96;99131.91;10355808;28;19976;-56
2021/08/06 14:02:43;;;;;;;;;;;;;;;24.11;46.01;99156.00;10351383;28;19929;-55
2021/08/06 14:07:44;;;;;;;;;;;;;;;23.69;47.52;99161.56;10338321;28;19935;-55
2021/08/06 14:12:46;;;;;;;;;;;;;;;23.44;48.42;99171.59;10335515;28;19925;-56
2021/08/06 14:17:51;;;;;;;;;;;;;;;23.16;49.24;99185.00;10350335;28;20445;-55
2021/08/06 14:22:52;;;;;;;;;;;;;;;23.10;49.50;99179.44;10356294;28;19929;-57
2021/08/06 14:27:54;;;;;;;;;;;;;;;23.19;47.48;99177.19;10352434;28;20705;-56
2021/08/06 14:32:55;;;;;;;;;;;;;;;23.34;47.76;99168.63;10352743;28;19940;-55
2021/08/06 14:37:56;;;;;;;;;;;;;;;22.90;47.93;99132.75;10347444;28;20402;-55
2021/08/06 14:42:58;;;;;;;;;;;;;;;23.29;47.29;99177.47;10345088;28;20012;-55
2021/08/06 14:48:03;;;;;;;;;;;;;;;23.40;47.90;99177.72;10351162;28;20008;-55
2021/08/06 14:53:04;;;;;;;;;;;;;;;23.54;47.21;99186.47;10350992;28;19925;-55
2021/08/06 14:58:06;;;;;;;;;;;;;;;23.39;46.92;99182.34;10337245;28;19968;-55
2021/08/06 15:03:07;;;;;;;;;;;;;;;23.18;47.62;99193.72;10349487;28;20027;-56
2021/08/06 15:08:09;;;;;;;;;;;;;;;23.21;46.93;99185.94;10334437;28;19925;-56
2021/08/06 15:13:10;;;;;;;;;;;;;;;23.16;46.83;99190.41;10348614;28;19975;-55
2021/08/06 15:18:21;;;;;;;;;;;;;;;23.15;47.45;99192.31;10359687;28;20008;-55
2021/08/06 15:23:23;;;;;;;;;;;;;;;23.16;47.66;99193.94;10355581;28;19934;-54
2021/08/06 15:28:27;;;;;;;;;;;;;;;22.94;47.32;99196.34;10347705;28;21477;-55
2021/08/06 15:33:28;;;;;;;;;;;;;;;22.79;48.35;99202.19;10350214;28;19965;-56
2021/08/06 15:38:30;;;;;;;;;;;;;;;22.69;48.73;99204.59;10350778;28;19968;-56
2021/08/06 15:43:31;;;;;;;;;;;;;;;22.58;49.48;99190.75;10356919;28;19955;-56
2021/08/06 15:48:33;;;;;;;;;;;;;;;22.84;49.01;99217.78;10353947;28;19929;-55
2021/08/06 15:53:35;;;;;;;;;;;;;;;22.97;49.32;99208.59;10344578;28;20024;-59
2021/08/06 15:58:36;;;;;;;;;;;;;;;23.22;48.43;99203.06;10333643;28;19933;-55
2021/08/06 16:03:41;;;;;;;;;;;;;;;23.22;49.10;99193.00;10342903;28;20022;-57
2021/08/06 16:09:00;;;;;;;;;;;;;;;23.23;48.90;99199.28;10320591;28;20283;-55
2021/08/06 16:14:01;;;;;;;;;;;;;;;23.07;48.77;99206.16;10320376;28;19969;-56
2021/08/06 16:19:03;;;;;;;;;;;;;;;22.84;48.57;99196.06;10337661;28;19933;-55
2021/08/06 16:24:05;;;;;;;;;;;;;;;22.55;48.19;99160.56;10354329;28;19965;-55
2021/08/06 16:29:06;;;;;;;;;;;;;;;22.85;48.23;99186.84;10331164;28;19926;-57
2021/08/06 16:34:08;;;;;;;;;;;;;;;22.72;48.27;99193.31;10350496;28;19933;-57
2021/08/06 16:39:09;;;;;;;;;;;;;;;22.77;48.40;99194.28;10348913;28;19969;-56
2021/08/06 16:44:10;;;;;;;;;;;;;;;22.88;48.39;99198.09;10355144;28;20000;-56
2021/08/06 16:49:12;;;;;;;;;;;;;;;22.93;48.23;99190.06;10339536;28;19957;-55
2021/08/06 16:54:14;;;;;;;;;;;;;;;22.84;48.59;99196.06;10350705;28;20355;-55
2021/08/06 16:59:15;;;;;;;;;;;;;;;22.59;48.33;99184.28;10341356;28;20021;-55
2021/08/06 17:04:17;;;;;;;;;;;;;;;22.53;49.11;99196.06;10344636;28;20030;-55
2021/08/06 17:09:18;;;;;;;;;;;;;;;22.50;49.82;99184.81;10350654;28;19968;-60
2021/08/06 17:14:20;;;;;;;;;;;;;;;22.48;50.75;99193.19;10345351;28;20024;-56
2021/08/06 17:19:21;;;;;;;;;;;;;;;22.40;49.34;99199.75;10350488;28;19929;-56
2021/08/06 17:24:22;;;;;;;;;;;;;;;22.40;48.88;99193.50;10332285;28;19929;-56
2021/08/06 17:29:24;;;;;;;;;;;;;;;22.34;49.14;99191.66;10350718;28;20066;-56
2021/08/06 17:34:25;;;;;;;;;;;;;;;22.33;49.26;99190.84;10347012;28;19940;-57
2021/08/06 17:39:27;;;;;;;;;;;;;;;22.30;50.19;99195.88;10346858;28;20031;-56
2021/08/06 17:44:29;;;;;;;;;;;;;;;22.31;49.75;99203.81;10341236;28;20106;-59
2021/08/06 17:49:30;;;;;;;;;;;;;;;22.27;50.20;99204.47;10347165;28;20350;-56
2021/08/06 17:54:32;;;;;;;;;;;;;;;22.23;51.54;99209.47;10341107;28;19933;-56
2021/08/06 17:59:33;;;;;;;;;;;;;;;22.23;51.73;99213.03;10344718;28;19940;-57
2021/08/06 18:04:34;;;;;;;;;;;;;;;22.10;52.34;99204.19;10337633;28;20012;-57
2021/08/06 18:09:36;;;;;;;;;;;;;;;21.98;52.72;99179.72;10346835;28;20191;-57
2021/08/06 18:14:37;;;;;;;;;;;;;;;22.09;52.65;99200.66;10342683;28;20028;-56
2021/08/06 18:19:39;;;;;;;;;;;;;;;21.90;52.84;99213.34;10344248;28;19933;-56
2021/08/06 18:24:40;;;;;;;;;;;;;;;21.87;53.58;99222.78;10346811;28;20011;-58
2021/08/06 18:29:42;;;;;;;;;;;;;;;21.88;53.61;99210.88;10349285;28;19972;-54
2021/08/06 18:34:43;;;;;;;;;;;;;;;21.82;53.62;99210.94;10343478;28;20012;-56
2021/08/06 18:39:44;;;;;;;;;;;;;;;21.71;53.71;99215.22;10344306;28;19968;-57
2021/08/06 18:44:46;;;;;;;;;;;;;;;21.47;53.50;99203.31;10342954;28;20016;-56
2021/08/06 18:49:47;;;;;;;;;;;;;;;21.48;53.35;99235.56;10344251;28;19976;-55
2021/08/06 18:54:48;;;;;;;;;;;;;;;21.35;52.24;99235.66;10349158;28;20059;-56
2021/08/06 18:59:50;;;;;;;;;;;;;;;21.22;52.52;99233.03;10347289;28;20401;-56
2021/08/06 19:04:51;;;;;;;;;;;;;;;21.17;52.66;99233.69;10342013;28;19959;-56
2021/08/06 19:09:55;;;;;;;;;;;;;;;21.07;52.85;99253.09;10331682;28;20403;-54
2021/08/06 19:14:56;;;;;;;;;;;;;;;20.94;53.02;99245.91;10329940;28;20008;-56
2021/08/06 19:19:58;;;;;;;;;;;;;;;20.83;53.32;99258.19;10340752;28;20418;-56
2021/08/06 19:24:59;;;;;;;;;;;;;;;20.76;53.53;99256.56;10344574;28;19944;-56
2021/08/06 19:30:01;;;;;;;;;;;;;;;20.73;53.79;99257.00;10340501;28;20039;-53
2021/08/06 19:35:05;;;;;;;;;;;;;;;20.70;54.44;99258.25;10342998;28;19933;-54
2021/08/06 19:40:07;;;;;;;;;;;;;;;20.67;54.59;99266.78;10329276;28;20020;-55
2021/08/06 19:45:09;;;;;;;;;;;;;;;20.55;55.10;99272.03;10343746;28;20356;-55
2021/08/06 19:50:10;;;;;;;;;;;;;;;20.54;55.35;99264.13;10341569;28;20396;-55
2021/08/06 19:55:11;;;;;;;;;;;;;;;20.46;55.70;99278.69;10335410;28;19939;-55
2021/08/06 20:00:13;;;;;;;;;;;;;;;20.31;55.95;99273.50;10334732;28;19925;-56
2021/08/06 20:05:15;;;;;;;;;;;;;;;20.00;56.17;99258.81;10338618;28;20079;-55
2021/08/06 20:10:16;;;;;;;;;;;;;;;20.07;56.78;99291.22;10334537;28;19926;-56
2021/08/06 20:15:18;;;;;;;;;;;;;;;19.99;57.14;99294.16;10319733;28;20640;-55
2021/08/06 20:20:19;;;;;;;;;;;;;;;19.94;57.49;99297.47;10342516;28;20438;-57
2021/08/06 20:25:21;;;;;;;;;;;;;;;19.81;57.69;99294.75;10344459;28;20482;-56
2021/08/06 20:30:22;;;;;;;;;;;;;;;19.78;57.97;99286.03;10346147;28;20016;-56
2021/08/06 20:35:23;;;;;;;;;;;;;;;19.74;58.02;99281.22;10343388;28;19929;-56
2021/08/06 20:40:25;;;;;;;;;;;;;;;19.66;58.33;99295.75;10338410;28;20434;-55
2021/08/06 20:45:26;;;;;;;;;;;;;;;19.60;58.83;99310.88;10347003;28;20016;-56
2021/08/06 20:50:28;;;;;;;;;;;;;;;19.58;58.98;99314.84;10345468;28;20577;-54
2021/08/06 20:55:29;;;;;;;;;;;;;;;19.57;59.29;99307.78;10352640;28;20018;-56
2021/08/06 21:00:30;;;;;;;;;;;;;;;19.52;59.33;99310.28;10365486;28;19972;-56
2021/08/06 21:05:32;;;;;;;;;;;;;;;19.41;59.76;99315.25;10362440;28;20622;-56
2021/08/06 21:10:34;;;;;;;;;;;;;;;19.38;59.91;99299.47;10352341;28;19945;-56
2021/08/06 21:15:35;;;;;;;;;;;;;;;19.40;59.87;99301.94;10354958;28;19991;-56
2021/08/06 21:20:36;;;;;;;;;;;;;;;19.40;59.83;99301.94;10360294;28;19965;-55
2021/08/06 21:25:38;;;;;;;;;;;;;;;19.36;60.00;99306.91;10364438;28;20041;-55
2021/08/06 21:30:39;;;;;;;;;;;;;;;19.34;60.21;99303.59;10367775;28;19925;-56
2021/08/06 21:35:41;;;;;;;;;;;;;;;19.36;60.35;99306.91;10361385;28;20016;-55
2021/08/06 21:40:47;;;;;;;;;;;;;;;19.39;60.41;99298.41;10362013;28;19925;-56
2021/08/06 21:45:48;;;;;;;;;;;;;;;19.41;60.75;99293.66;10368774;28;19969;-56
2021/08/06 21:50:51;;;;;;;;;;;;;;;19.48;60.89;99300.94;10357240;28;19933;-55
2021/08/06 21:55:52;;;;;;;;;;;;;;;19.36;61.03;99296.13;10349538;28;20350;-55
2021/08/06 22:00:53;;;;;;;;;;;;;;;19.38;60.93;99287.81;10362584;28;19975;-56
2021/08/06 22:05:55;;;;;;;;;;;;;;;19.39;61.30;99282.22;10367320;28;19971;-56
2021/08/06 22:10:56;;;;;;;;;;;;;;;19.41;61.20;99282.00;10361243;28;19925;-56
2021/08/06 22:15:58;;;;;;;;;;;;;;;19.38;61.58;99280.56;10367368;28;19956;-56
2021/08/06 22:20:59;;;;;;;;;;;;;;;19.35;61.50;99283.69;10369443;28;19925;-55
2021/08/06 22:26:00;;;;;;;;;;;;;;;19.34;61.70;99287.41;10367946;28;19964;-56
2021/08/06 22:31:02;;;;;;;;;;;;;;;19.33;62.07;99290.31;10362608;28;20024;-55
2021/08/06 22:36:04;;;;;;;;;;;;;;;19.33;62.95;99285.72;10352072;28;20035;-56
2021/08/06 22:41:05;;;;;;;;;;;;;;;19.28;61.97;99277.44;10361236;28;20011;-55
2021/08/06 22:46:06;;;;;;;;;;;;;;;19.27;62.35;99273.06;10365602;28;19968;-56
2021/08/06 22:51:08;;;;;;;;;;;;;;;19.23;62.25;99285.28;10362796;28;19925;-55
2021/08/06 22:56:09;;;;;;;;;;;;;;;19.18;62.51;99288.59;10354810;28;19926;-55
2021/08/06 23:01:11;;;;;;;;;;;;;;;19.15;62.76;99290.88;10360678;28;19996;-55
2021/08/06 23:06:12;;;;;;;;;;;;;;;19.08;63.35;99296.28;10365677;28;19925;-56
2021/08/06 23:11:14;;;;;;;;;;;;;;;19.01;63.36;99290.00;10363716;28;20015;-55
2021/08/06 23:16:15;;;;;;;;;;;;;;;18.95;63.65;99294.34;10356672;28;19925;-58
2021/08/06 23:21:17;;;;;;;;;;;;;;;18.88;64.30;99293.47;10357095;28;19929;-56
2021/08/06 23:26:18;;;;;;;;;;;;;;;18.79;64.70;99297.34;10356762;28;20019;-55
2021/08/06 23:31:20;;;;;;;;;;;;;;;18.74;64.89;99292.56;10363550;28;19972;-55
2021/08/06 23:36:21;;;;;;;;;;;;;;;18.68;65.55;99298.75;10349746;28;19992;-55
2021/08/06 23:41:22;;;;;;;;;;;;;;;18.61;66.08;99301.41;10359218;28;20471;-54
2021/08/06 23:46:24;;;;;;;;;;;;;;;18.60;66.25;99290.81;10362120;28;19925;-56
2021/08/06 23:51:25;;;;;;;;;;;;;;;18.59;66.49;99295.38;10365587;28;19925;-54
2021/08/06 23:56:26;;;;;;;;;;;;;;;18.54;66.90;99298.69;10358013;28;19965;-53
